Time;durP1;ratioP1;P1;durP2;ratioP2;P2;SDS_P1;SDS_P2;PMS_P1;PMS_P2;Temp;Humidity;BMP_temperature;BMP_pressure;BME280_temperature;BME280_humidity;BME280_pressure;Samples;Min_cycle;Max_cycle;Signal;HPM_P1;HPM_P2
2022/11/10 00:02:00;;;;;;;0.60;0.57;;;;;;;;;;5035474;28;20647;-81
2022/11/10 00:04:28;;;;;;;3.40;1.50;;;;;;;;;;5035137;28;20288;-82
2022/11/10 00:06:55;;;;;;;1.92;0.77;;;;;;;;;;5034907;28;20194;-82
2022/11/10 00:09:24;;;;;;;0.95;0.90;;;;;;;;;;5035224;28;20241;-82
2022/11/10 00:11:51;;;;;;;1.63;1.00;;;;;;;;;;5035112;28;20258;-82
2022/11/10 00:17:04;;;;;;;1.02;0.93;;;;;;;;;;5034947;28;20204;-82
2022/11/10 00:19:32;;;;;;;3.50;1.55;;;;;;;;;;5034779;28;20261;-82
2022/11/10 00:22:01;;;;;;;0.80;0.80;;;;;;;;;;5034694;28;20248;-81
2022/11/10 00:24:30;;;;;;;0.82;0.75;;;;;;;;;;5035049;28;20199;-82
2022/11/10 00:26:58;;;;;;;0.82;0.82;;;;;;;;;;5034294;28;20198;-82
2022/11/10 00:29:25;;;;;;;2.45;1.20;;;;;;;;;;5034204;28;20218;-82
2022/11/10 00:31:53;;;;;;;1.25;0.80;;;;;;;;;;5033857;28;20228;-81
2022/11/10 00:34:20;;;;;;;1.35;0.77;;;;;;;;;;5033758;28;20209;-81
2022/11/10 00:36:47;;;;;;;1.75;1.00;;;;;;;;;;5033641;28;20247;-81
2022/11/10 00:39:15;;;;;;;0.90;0.90;;;;;;;;;;5032887;28;20289;-81
2022/11/10 00:41:44;;;;;;;0.88;0.88;;;;;;;;;;5033303;28;20289;-81
2022/11/10 00:44:11;;;;;;;0.85;0.85;;;;;;;;;;5033512;28;20287;-82
2022/11/10 00:46:39;;;;;;;1.90;1.00;;;;;;;;;;5033018;28;20763;-81
2022/11/10 00:49:07;;;;;;;1.30;1.02;;;;;;;;;;5032800;28;20245;-81
2022/11/10 00:51:34;;;;;;;2.40;1.40;;;;;;;;;;5033142;28;20209;-81
2022/11/10 00:54:02;;;;;;;2.17;1.73;;;;;;;;;;5033163;28;20565;-81
2022/11/10 00:56:29;;;;;;;2.35;1.25;;;;;;;;;;5032932;28;20202;-81
2022/11/10 00:58:58;;;;;;;2.05;1.30;;;;;;;;;;5032795;28;20741;-83
2022/11/10 01:01:26;;;;;;;0.95;0.95;;;;;;;;;;5033108;28;20203;-81
2022/11/10 01:03:54;;;;;;;1.67;1.13;;;;;;;;;;5033103;28;20198;-81
2022/11/10 01:06:22;;;;;;;1.38;1.27;;;;;;;;;;5032902;28;20202;-81
2022/11/10 01:08:50;;;;;;;1.52;1.35;;;;;;;;;;5032455;28;20218;-81
2022/11/10 01:11:20;;;;;;;1.25;1.15;;;;;;;;;;5032926;28;20662;-81
2022/11/10 01:13:49;;;;;;;1.70;1.00;;;;;;;;;;5032612;28;20226;-81
2022/11/10 01:16:21;;;;;;;1.35;1.25;;;;;;;;;;5033020;28;20218;-81
2022/11/10 01:18:50;;;;;;;1.17;1.08;;;;;;;;;;5032682;28;20289;-82
2022/11/10 01:21:17;;;;;;;1.48;0.95;;;;;;;;;;5088272;22;20314;-84
2022/11/10 01:23:45;;;;;;;1.40;1.00;;;;;;;;;;5094909;28;20291;-83
2022/11/10 01:26:14;;;;;;;1.15;1.08;;;;;;;;;;5095093;28;20196;-84
2022/11/10 01:28:41;;;;;;;1.33;1.23;;;;;;;;;;5094747;28;20316;-84
2022/11/10 01:31:12;;;;;;;3.83;1.20;;;;;;;;;;5094972;28;20231;-84
2022/11/10 01:33:42;;;;;;;1.27;0.90;;;;;;;;;;5094646;28;20223;-84
2022/11/10 01:36:11;;;;;;;0.70;0.70;;;;;;;;;;5095238;28;20291;-83
2022/11/10 01:38:41;;;;;;;0.90;0.90;;;;;;;;;;5094711;28;20314;-84
2022/11/10 01:41:10;;;;;;;1.88;1.10;;;;;;;;;;5095547;28;20196;-84
2022/11/10 01:43:38;;;;;;;2.55;1.60;;;;;;;;;;5094300;28;20268;-86
2022/11/10 01:46:07;;;;;;;1.02;0.90;;;;;;;;;;5094937;28;20223;-86
2022/11/10 01:48:38;;;;;;;1.45;0.98;;;;;;;;;;5094297;28;20306;-86
2022/11/10 01:51:08;;;;;;;1.10;1.00;;;;;;;;;;5094282;28;21065;-85
2022/11/10 01:53:39;;;;;;;3.60;1.25;;;;;;;;;;5095015;28;20728;-86
2022/11/10 01:56:10;;;;;;;2.08;1.20;;;;;;;;;;5094958;28;20829;-85
2022/11/10 01:58:40;;;;;;;2.67;1.80;;;;;;;;;;5094274;28;20340;-82
2022/11/10 02:01:08;;;;;;;1.33;1.10;;;;;;;;;;5094496;28;20200;-86
2022/11/10 02:03:41;;;;;;;1.00;1.00;;;;;;;;;;5094153;28;20291;-86
2022/11/10 02:06:10;;;;;;;1.23;1.08;;;;;;;;;;5095963;28;20276;-86
2022/11/10 02:08:38;;;;;;;1.42;1.30;;;;;;;;;;5098444;28;20299;-84
2022/11/10 02:11:05;;;;;;;0.80;0.80;;;;;;;;;;5097793;28;20278;-86
2022/11/10 02:13:33;;;;;;;1.55;1.45;;;;;;;;;;5097970;28;20306;-84
2022/11/10 02:16:00;;;;;;;1.27;1.08;;;;;;;;;;5097780;28;20263;-84
2022/11/10 02:18:28;;;;;;;3.15;1.23;;;;;;;;;;5097965;28;20307;-83
2022/11/10 02:20:58;;;;;;;1.95;1.10;;;;;;;;;;5083174;28;20660;-84
2022/11/10 02:23:50;;;;;;;1.13;0.90;;;;;;;;;;5078625;28;20648;-84
2022/11/10 02:26:22;;;;;;;0.93;0.93;;;;;;;;;;5054469;28;20289;-84
2022/11/10 02:28:49;;;;;;;1.23;1.13;;;;;;;;;;5077996;28;20312;-85
2022/11/10 02:31:17;;;;;;;2.10;1.20;;;;;;;;;;5077882;28;20609;-84
2022/11/10 02:33:44;;;;;;;1.88;1.27;;;;;;;;;;5078194;28;20667;-84
2022/11/10 02:36:13;;;;;;;1.02;1.02;;;;;;;;;;5077832;28;20595;-84
2022/11/10 02:38:41;;;;;;;1.45;0.90;;;;;;;;;;5077666;28;20308;-85
2022/11/10 02:41:09;;;;;;;2.13;1.42;;;;;;;;;;5078070;28;20287;-84
2022/11/10 02:43:37;;;;;;;1.20;0.93;;;;;;;;;;5078095;28;20250;-84
2022/11/10 02:46:06;;;;;;;2.17;1.35;;;;;;;;;;5078457;28;20255;-84
2022/11/10 02:48:39;;;;;;;1.52;1.13;;;;;;;;;;5077274;28;20220;-84
2022/11/10 02:51:11;;;;;;;1.38;1.20;;;;;;;;;;5093735;28;20283;-83
2022/11/10 02:53:40;;;;;;;1.40;1.20;;;;;;;;;;5098458;28;20205;-84
2022/11/10 02:56:09;;;;;;;1.50;1.15;;;;;;;;;;5097900;28;20231;-84
2022/11/10 02:58:36;;;;;;;2.88;1.38;;;;;;;;;;5097685;28;20703;-84
2022/11/10 03:01:05;;;;;;;1.48;1.27;;;;;;;;;;5097544;28;20295;-84
2022/11/10 03:03:33;;;;;;;1.73;1.20;;;;;;;;;;5098053;28;20200;-83
2022/11/10 03:06:01;;;;;;;1.85;1.73;;;;;;;;;;5097898;28;20224;-84
2022/11/10 03:08:28;;;;;;;1.20;1.10;;;;;;;;;;5096668;28;20311;-83
2022/11/10 03:10:58;;;;;;;1.17;1.13;;;;;;;;;;5097501;28;20330;-84
2022/11/10 03:13:26;;;;;;;1.17;1.13;;;;;;;;;;5096731;28;20220;-84
2022/11/10 03:15:53;;;;;;;1.67;1.00;;;;;;;;;;5097192;28;20291;-86
2022/11/10 03:18:21;;;;;;;1.00;0.90;;;;;;;;;;5096907;28;20311;-86
2022/11/10 03:20:49;;;;;;;1.20;1.10;;;;;;;;;;5083662;28;20669;-86
2022/11/10 03:23:17;;;;;;;1.42;1.13;;;;;;;;;;5077342;28;20201;-85
2022/11/10 03:25:45;;;;;;;3.67;1.48;;;;;;;;;;5077065;28;20205;-84
2022/11/10 03:28:15;;;;;;;1.75;1.40;;;;;;;;;;5076799;28;20675;-84
2022/11/10 03:30:42;;;;;;;1.08;1.08;;;;;;;;;;5076957;28;20631;-84
2022/11/10 03:33:10;;;;;;;1.48;1.15;;;;;;;;;;5077160;28;20288;-85
2022/11/10 03:35:37;;;;;;;1.25;1.10;;;;;;;;;;5076977;28;20288;-84
2022/11/10 03:38:05;;;;;;;1.17;1.05;;;;;;;;;;5076763;28;20308;-84
2022/11/10 03:40:32;;;;;;;2.10;1.33;;;;;;;;;;5077411;28;20292;-86
2022/11/10 03:43:00;;;;;;;1.67;1.35;;;;;;;;;;5076766;28;20237;-85
2022/11/10 03:45:29;;;;;;;1.75;1.10;;;;;;;;;;5076288;28;20292;-85
2022/11/10 03:47:56;;;;;;;0.88;0.88;;;;;;;;;;5076076;28;20308;-84
2022/11/10 03:50:24;;;;;;;0.90;0.90;;;;;;;;;;5075808;28;20354;-84
2022/11/10 03:52:51;;;;;;;1.13;1.00;;;;;;;;;;5076273;28;20288;-84
2022/11/10 03:55:19;;;;;;;2.10;1.35;;;;;;;;;;5076286;28;20319;-84
2022/11/10 03:57:47;;;;;;;1.05;1.05;;;;;;;;;;5076812;28;20307;-84
2022/11/10 04:00:16;;;;;;;1.27;1.20;;;;;;;;;;5076366;28;20287;-83
2022/11/10 04:02:44;;;;;;;4.10;1.40;;;;;;;;;;5076874;28;20255;-84
2022/11/10 04:10:44;;;;;;;1.30;1.10;;;;;;;;;;5075965;28;20188;-85
2022/11/10 04:15:56;;;;;;;2.30;1.30;;;;;;;;;;5076020;28;20219;-83
2022/11/10 04:18:25;;;;;;;1.35;1.15;;;;;;;;;;5075935;28;20653;-84
2022/11/10 04:20:54;;;;;;;2.03;1.10;;;;;;;;;;5090233;28;20212;-85
2022/11/10 04:23:33;;;;;;;1.42;1.25;;;;;;;;;;5095744;28;20287;-84
2022/11/10 04:28:49;;;;;;;1.95;1.30;;;;;;;;;;5094534;28;20856;-84
2022/11/10 04:31:18;;;;;;;1.52;1.38;;;;;;;;;;5095742;28;20275;-84
2022/11/10 04:33:48;;;;;;;1.17;1.05;;;;;;;;;;5096558;28;20204;-84
2022/11/10 04:36:18;;;;;;;0.77;0.77;;;;;;;;;;5096565;28;20295;-84
2022/11/10 04:38:45;;;;;;;3.90;1.23;;;;;;;;;;5096460;28;20949;-84
2022/11/10 04:41:13;;;;;;;1.90;1.40;;;;;;;;;;5096395;28;20287;-83
2022/11/10 04:43:41;;;;;;;1.15;0.90;;;;;;;;;;5096191;28;20287;-82
2022/11/10 04:46:15;;;;;;;0.90;0.90;;;;;;;;;;5095398;28;20283;-84
2022/11/10 04:48:42;;;;;;;2.45;1.20;;;;;;;;;;5096245;28;20306;-84
2022/11/10 04:51:12;;;;;;;1.02;0.90;;;;;;;;;;5095691;28;20760;-84
2022/11/10 04:53:39;;;;;;;1.20;1.10;;;;;;;;;;5095287;28;20287;-84
2022/11/10 04:56:09;;;;;;;1.65;1.30;;;;;;;;;;5095640;28;20296;-84
2022/11/10 04:58:39;;;;;;;1.17;1.10;;;;;;;;;;5095803;28;20727;-84
2022/11/10 05:01:06;;;;;;;1.38;1.20;;;;;;;;;;5095492;28;20759;-85
2022/11/10 05:03:34;;;;;;;2.35;1.40;;;;;;;;;;5095045;28;20295;-86
2022/11/10 05:06:01;;;;;;;1.35;1.10;;;;;;;;;;5095094;28;20283;-86
2022/11/10 05:08:30;;;;;;;2.35;1.20;;;;;;;;;;5095206;28;20306;-85
2022/11/10 05:10:58;;;;;;;2.22;1.48;;;;;;;;;;5094989;28;20672;-86
2022/11/10 05:13:33;;;;;;;1.73;1.50;;;;;;;;;;5096170;28;20208;-85
2022/11/10 05:16:00;;;;;;;2.47;1.35;;;;;;;;;;5095966;28;20300;-84
2022/11/10 05:18:29;;;;;;;1.98;1.77;;;;;;;;;;5096240;28;20252;-84
2022/11/10 05:20:57;;;;;;;2.25;1.50;;;;;;;;;;5080228;28;20572;-85
2022/11/10 05:23:39;;;;;;;1.50;1.40;;;;;;;;;;5075442;28;20280;-84
2022/11/10 05:26:11;;;;;;;3.28;1.65;;;;;;;;;;5075437;28;20181;-84
2022/11/10 05:28:38;;;;;;;1.00;1.00;;;;;;;;;;5075523;28;20303;-85
2022/11/10 05:31:06;;;;;;;1.10;1.02;;;;;;;;;;5075501;28;20390;-85
2022/11/10 05:33:34;;;;;;;1.90;1.20;;;;;;;;;;5075221;28;20232;-85
2022/11/10 05:36:02;;;;;;;1.20;1.10;;;;;;;;;;5074682;28;20220;-85
2022/11/10 05:38:29;;;;;;;0.85;0.85;;;;;;;;;;5074315;28;20260;-86
2022/11/10 05:40:57;;;;;;;1.50;1.40;;;;;;;;;;5108676;28;20270;-84
2022/11/10 05:43:26;;;;;;;2.17;1.40;;;;;;;;;;5119733;28;20290;-84
2022/11/10 05:45:53;;;;;;;3.35;1.40;;;;;;;;;;5120315;28;20282;-84
2022/11/10 05:48:21;;;;;;;1.73;1.30;;;;;;;;;;5119953;28;20899;-83
2022/11/10 05:50:48;;;;;;;1.23;1.10;;;;;;;;;;5120016;28;20627;-83
2022/11/10 05:53:16;;;;;;;3.42;3.13;;;;;;;;;;5119628;28;20242;-83
2022/11/10 05:55:43;;;;;;;5.65;5.07;;;;;;;;;;5120443;28;20266;-83
2022/11/10 05:58:32;;;;;;;6.18;4.80;;;;;;;;;;5120449;28;20742;-83
2022/11/10 06:00:59;;;;;;;6.30;5.65;;;;;;;;;;5119733;28;20282;-82
2022/11/10 06:03:27;;;;;;;6.43;5.47;;;;;;;;;;5121001;28;20762;-85
2022/11/10 06:05:55;;;;;;;8.18;7.38;;;;;;;;;;5121929;28;20204;-84
2022/11/10 06:08:23;;;;;;;5.45;4.22;;;;;;;;;;5121201;28;20220;-84
2022/11/10 06:10:51;;;;;;;3.75;3.25;;;;;;;;;;5121651;28;20207;-84
2022/11/10 06:13:18;;;;;;;3.30;2.65;;;;;;;;;;5121172;28;20238;-84
2022/11/10 06:15:47;;;;;;;3.33;2.65;;;;;;;;;;5119976;28;20235;-85
2022/11/10 06:18:15;;;;;;;2.22;2.03;;;;;;;;;;5120982;28;20219;-85
2022/11/10 06:20:42;;;;;;;3.58;2.65;;;;;;;;;;5120609;28;20246;-84
2022/11/10 06:23:11;;;;;;;2.20;2.10;;;;;;;;;;5119028;28;20234;-87
2022/11/10 06:25:40;;;;;;;2.40;2.20;;;;;;;;;;5119065;28;20282;-86
2022/11/10 06:28:09;;;;;;;2.50;2.30;;;;;;;;;;5119480;28;20759;-85
2022/11/10 06:30:38;;;;;;;3.08;2.05;;;;;;;;;;5120160;28;20203;-84
2022/11/10 06:33:07;;;;;;;2.78;2.45;;;;;;;;;;5119791;28;20210;-85
2022/11/10 06:35:35;;;;;;;5.70;2.58;;;;;;;;;;5120572;28;20258;-85
2022/11/10 06:38:05;;;;;;;5.25;2.08;;;;;;;;;;5120923;28;20315;-85
2022/11/10 06:40:33;;;;;;;2.72;2.20;;;;;;;;;;5121019;28;20272;-85
2022/11/10 06:43:01;;;;;;;3.13;2.10;;;;;;;;;;5121132;28;20234;-85
2022/11/10 06:45:30;;;;;;;2.42;1.65;;;;;;;;;;5119931;28;20203;-84
2022/11/10 06:48:01;;;;;;;1.98;1.60;;;;;;;;;;5096804;28;20259;-84
2022/11/10 06:50:40;;;;;;;1.52;1.42;;;;;;;;;;5079449;28;20189;-84
2022/11/10 06:53:09;;;;;;;1.33;1.23;;;;;;;;;;5078276;28;20215;-85
2022/11/10 06:55:36;;;;;;;2.53;1.70;;;;;;;;;;5078681;28;20267;-85
2022/11/10 06:58:04;;;;;;;5.18;1.88;;;;;;;;;;5078692;28;20259;-86
2022/11/10 07:00:32;;;;;;;2.10;1.98;;;;;;;;;;5078553;28;20296;-85
2022/11/10 07:03:01;;;;;;;2.05;1.85;;;;;;;;;;5078791;28;20236;-84
2022/11/10 07:05:29;;;;;;;1.90;1.55;;;;;;;;;;5079125;28;20229;-84
2022/11/10 07:08:04;;;;;;;2.95;2.08;;;;;;;;;;5078582;28;20315;-84
2022/11/10 07:10:33;;;;;;;3.45;2.05;;;;;;;;;;5078564;28;20177;-84
2022/11/10 07:13:01;;;;;;;2.35;1.52;;;;;;;;;;5079104;28;20232;-84
2022/11/10 07:15:29;;;;;;;3.38;2.15;;;;;;;;;;5079068;28;20313;-84
2022/11/10 07:17:57;;;;;;;1.67;1.58;;;;;;;;;;5079132;28;20311;-86
2022/11/10 07:20:24;;;;;;;2.28;1.70;;;;;;;;;;5079082;28;20299;-85
2022/11/10 07:22:59;;;;;;;2.42;1.88;;;;;;;;;;5080489;28;20205;-83
2022/11/10 07:25:28;;;;;;;2.47;2.28;;;;;;;;;;5079642;28;20181;-85
2022/11/10 07:27:57;;;;;;;4.93;2.30;;;;;;;;;;5078419;28;20685;-85
2022/11/10 07:30:25;;;;;;;2.17;1.52;;;;;;;;;;5079502;28;20208;-84
2022/11/10 07:33:00;;;;;;;3.33;1.73;;;;;;;;;;5078607;28;20205;-84
2022/11/10 07:35:28;;;;;;;2.67;1.40;;;;;;;;;;5078024;28;20240;-85
2022/11/10 07:37:56;;;;;;;1.65;1.55;;;;;;;;;;5078473;28;20278;-86
2022/11/10 07:40:24;;;;;;;1.70;1.60;;;;;;;;;;5080492;28;20243;-84
2022/11/10 07:42:53;;;;;;;2.80;2.10;;;;;;;;;;5114430;28;20278;-84
2022/11/10 07:45:20;;;;;;;2.40;1.77;;;;;;;;;;5118827;28;20225;-86
2022/11/10 07:47:49;;;;;;;2.00;1.83;;;;;;;;;;5121366;28;20223;-86
2022/11/10 07:50:17;;;;;;;4.13;2.90;;;;;;;;;;5118098;28;20206;-86
2022/11/10 07:52:45;;;;;;;1.80;1.70;;;;;;;;;;5118366;28;20196;-85
2022/11/10 07:55:13;;;;;;;2.83;1.92;;;;;;;;;;5118348;28;20231;-85
2022/11/10 07:57:40;;;;;;;3.60;2.15;;;;;;;;;;5118434;28;20684;-85
2022/11/10 08:00:12;;;;;;;6.40;1.85;;;;;;;;;;5118243;28;20855;-84
2022/11/10 08:02:40;;;;;;;2.80;2.60;;;;;;;;;;5117985;28;20538;-85
2022/11/10 08:05:08;;;;;;;6.30;3.03;;;;;;;;;;5117666;28;20195;-84
2022/11/10 08:07:36;;;;;;;3.42;2.33;;;;;;;;;;5118736;28;20239;-84
2022/11/10 08:10:03;;;;;;;2.00;1.83;;;;;;;;;;5118221;28;20227;-84
2022/11/10 08:12:31;;;;;;;2.90;1.90;;;;;;;;;;5118613;28;20199;-85
2022/11/10 08:14:58;;;;;;;3.67;2.22;;;;;;;;;;5118834;28;20303;-84
2022/11/10 08:17:27;;;;;;;2.90;2.40;;;;;;;;;;5111656;28;20315;-84
2022/11/10 08:19:55;;;;;;;2.35;2.15;;;;;;;;;;5094394;28;20236;-83
2022/11/10 08:22:22;;;;;;;3.08;2.15;;;;;;;;;;5098195;28;20287;-85
2022/11/10 08:24:50;;;;;;;2.10;1.90;;;;;;;;;;5098441;28;20291;-82
2022/11/10 08:27:17;;;;;;;3.33;1.45;;;;;;;;;;5098891;28;20289;-83
2022/11/10 08:29:44;;;;;;;2.85;1.70;;;;;;;;;;5097657;28;20200;-83
2022/11/10 08:32:12;;;;;;;3.08;1.63;;;;;;;;;;5097515;28;20291;-84
2022/11/10 08:34:41;;;;;;;4.10;2.10;;;;;;;;;;5097082;28;20281;-83
2022/11/10 08:37:08;;;;;;;3.58;2.08;;;;;;;;;;5114676;28;20310;-83
2022/11/10 08:39:36;;;;;;;3.67;2.13;;;;;;;;;;5115780;28;20290;-84
2022/11/10 08:42:05;;;;;;;3.47;2.70;;;;;;;;;;5117523;28;20232;-83
2022/11/10 08:44:32;;;;;;;2.50;1.80;;;;;;;;;;5117174;28;20206;-83
2022/11/10 08:47:00;;;;;;;5.07;1.83;;;;;;;;;;5114752;28;20282;-85
2022/11/10 08:49:27;;;;;;;7.30;2.38;;;;;;;;;;5095334;28;20283;-87
2022/11/10 08:51:56;;;;;;;6.40;2.17;;;;;;;;;;5095462;28;20292;-86
2022/11/10 08:54:23;;;;;;;6.00;2.10;;;;;;;;;;5095672;28;20372;-86
2022/11/10 08:56:51;;;;;;;2.90;2.50;;;;;;;;;;5095589;28;20310;-87
2022/11/10 08:59:18;;;;;;;2.97;1.50;;;;;;;;;;5094983;28;20298;-86
2022/11/10 09:01:46;;;;;;;1.75;1.65;;;;;;;;;;5095003;28;20235;-85
2022/11/10 09:04:14;;;;;;;6.00;2.25;;;;;;;;;;5094619;28;20234;-85
2022/11/10 09:06:42;;;;;;;3.83;2.47;;;;;;;;;;5095342;28;20232;-85
2022/11/10 09:09:10;;;;;;;3.40;2.30;;;;;;;;;;5095367;28;20228;-85
2022/11/10 09:11:38;;;;;;;3.35;1.88;;;;;;;;;;5096156;28;20228;-85
2022/11/10 09:14:05;;;;;;;3.30;2.00;;;;;;;;;;5094588;28;20232;-84
2022/11/10 09:16:34;;;;;;;6.55;2.33;;;;;;;;;;5095662;28;20306;-84
2022/11/10 09:19:02;;;;;;;3.45;2.28;;;;;;;;;;5094326;28;20303;-83
2022/11/10 09:21:30;;;;;;;5.38;2.42;;;;;;;;;;5074761;28;20304;-84
2022/11/10 09:23:57;;;;;;;2.47;1.95;;;;;;;;;;5076146;28;20232;-83
2022/11/10 09:26:27;;;;;;;2.55;1.65;;;;;;;;;;5077408;28;20624;-86
2022/11/10 09:28:54;;;;;;;3.88;2.03;;;;;;;;;;5076908;28;20803;-83
2022/11/10 09:31:22;;;;;;;3.25;2.20;;;;;;;;;;5081920;28;20287;-83
2022/11/10 09:33:49;;;;;;;2.88;1.55;;;;;;;;;;5100775;28;20287;-85
2022/11/10 09:36:17;;;;;;;3.05;1.90;;;;;;;;;;5096513;28;20284;-85
2022/11/10 09:38:44;;;;;;;1.73;1.50;;;;;;;;;;5095235;28;20560;-85
2022/11/10 09:41:14;;;;;;;4.32;2.33;;;;;;;;;;5095047;28;20283;-85
2022/11/10 09:43:46;;;;;;;4.20;1.90;;;;;;;;;;5094917;28;20727;-84
2022/11/10 09:46:18;;;;;;;3.83;1.77;;;;;;;;;;5095286;28;20202;-85
2022/11/10 09:48:49;;;;;;;1.88;1.65;;;;;;;;;;5094925;28;20706;-85
2022/11/10 09:51:21;;;;;;;2.80;2.17;;;;;;;;;;5095483;28;20776;-84
2022/11/10 09:53:52;;;;;;;2.70;1.95;;;;;;;;;;5094380;28;20187;-82
2022/11/10 09:56:23;;;;;;;1.67;1.58;;;;;;;;;;5095199;28;20184;-85
2022/11/10 09:58:52;;;;;;;4.63;2.08;;;;;;;;;;5094293;28;20314;-84
2022/11/10 10:01:30;;;;;;;2.30;1.75;;;;;;;;;;5094745;28;20286;-84
2022/11/10 10:04:12;;;;;;;2.90;1.75;;;;;;;;;;5094555;28;20287;-85
2022/11/10 10:06:48;;;;;;;2.60;1.60;;;;;;;;;;5095000;28;20736;-85
2022/11/10 10:09:24;;;;;;;2.63;1.77;;;;;;;;;;5095768;28;20614;-85
2022/11/10 10:12:00;;;;;;;5.85;1.80;;;;;;;;;;5094423;28;20280;-85
2022/11/10 10:14:56;;;;;;;2.95;1.88;;;;;;;;;;5095114;28;20271;-84
2022/11/10 10:17:28;;;;;;;3.08;1.83;;;;;;;;;;5094744;28;20311;-84
2022/11/10 10:20:02;;;;;;;3.10;1.70;;;;;;;;;;5094869;28;20299;-85
2022/11/10 10:22:57;;;;;;;2.72;1.90;;;;;;;;;;5094656;28;20271;-84
2022/11/10 10:25:26;;;;;;;2.15;1.38;;;;;;;;;;5095048;28;20250;-84
2022/11/10 10:28:02;;;;;;;1.17;1.08;;;;;;;;;;5097952;28;20307;-85
2022/11/10 10:30:31;;;;;;;5.32;2.65;;;;;;;;;;5098558;28;20814;-86
2022/11/10 10:33:11;;;;;;;4.20;1.92;;;;;;;;;;5098273;28;20241;-85
2022/11/10 10:35:39;;;;;;;2.08;1.70;;;;;;;;;;5098263;28;20603;-85
2022/11/10 10:38:17;;;;;;;2.55;1.60;;;;;;;;;;5097900;28;20312;-84
2022/11/10 10:40:49;;;;;;;1.50;1.30;;;;;;;;;;5099347;28;20276;-83
2022/11/10 10:43:16;;;;;;;2.60;1.65;;;;;;;;;;5114381;28;20269;-85
2022/11/10 10:45:45;;;;;;;4.10;1.40;;;;;;;;;;5118416;28;20284;-85
2022/11/10 10:48:28;;;;;;;3.22;1.80;;;;;;;;;;5106250;28;20255;-84
2022/11/10 10:50:56;;;;;;;2.40;1.20;;;;;;;;;;5094595;28;20283;-85
2022/11/10 10:53:25;;;;;;;2.42;1.83;;;;;;;;;;5097843;28;20292;-84
2022/11/10 10:55:59;;;;;;;5.43;1.88;;;;;;;;;;5098633;28;20788;-84
2022/11/10 10:58:29;;;;;;;4.20;2.10;;;;;;;;;;5097223;28;20224;-83
2022/11/10 11:01:05;;;;;;;2.95;1.83;;;;;;;;;;5098348;28;20272;-85
2022/11/10 11:03:41;;;;;;;4.38;1.98;;;;;;;;;;5097664;28;20271;-84
2022/11/10 11:06:21;;;;;;;1.65;1.17;;;;;;;;;;5097165;28;20667;-85
2022/11/10 11:08:57;;;;;;;2.38;1.65;;;;;;;;;;5097166;28;20651;-82
2022/11/10 11:11:27;;;;;;;4.03;1.98;;;;;;;;;;5096822;28;20287;-84
2022/11/10 11:14:14;;;;;;;6.32;1.90;;;;;;;;;;5098021;28;20677;-84
2022/11/10 11:16:51;;;;;;;4.63;1.67;;;;;;;;;;5098233;28;20268;-84
2022/11/10 11:19:21;;;;;;;2.03;1.30;;;;;;;;;;5078591;28;20312;-83
2022/11/10 11:24:27;;;;;;;3.03;1.60;;;;;;;;;;5075265;28;20206;-87
2022/11/10 11:26:59;;;;;;;2.67;1.85;;;;;;;;;;5077539;28;20189;-86
2022/11/10 11:30:01;;;;;;;3.20;1.73;;;;;;;;;;5077513;28;20692;-86
2022/11/10 11:32:55;;;;;;;3.85;1.50;;;;;;;;;;5078073;28;20227;-85
2022/11/10 11:35:31;;;;;;;2.83;1.30;;;;;;;;;;5077676;28;20331;-85
2022/11/10 11:38:09;;;;;;;5.45;2.28;;;;;;;;;;5077869;28;20209;-85
2022/11/10 11:40:47;;;;;;;2.70;1.60;;;;;;;;;;5077133;28;20228;-85
2022/11/10 11:43:29;;;;;;;2.15;1.70;;;;;;;;;;5076458;28;20221;-86
2022/11/10 11:46:03;;;;;;;1.67;1.30;;;;;;;;;;5076585;28;20295;-85
2022/11/10 11:48:52;;;;;;;3.17;1.83;;;;;;;;;;5062357;28;20284;-86
2022/11/10 11:51:26;;;;;;;1.85;1.40;;;;;;;;;;5064501;28;20205;-86
2022/11/10 11:54:13;;;;;;;3.80;1.52;;;;;;;;;;5075160;28;20224;-87
2022/11/10 11:56:43;;;;;;;4.70;2.22;;;;;;;;;;5076410;28;20192;-86
2022/11/10 11:59:31;;;;;;;2.97;1.63;;;;;;;;;;5075984;28;20216;-87
2022/11/10 12:02:30;;;;;;;3.05;2.15;;;;;;;;;;5078061;28;20247;-88
2022/11/10 12:05:12;;;;;;;3.63;2.17;;;;;;;;;;5077832;28;20613;-86
2022/11/10 12:07:50;;;;;;;1.75;1.40;;;;;;;;;;5078133;28;20183;-87
2022/11/10 12:10:29;;;;;;;4.20;2.47;;;;;;;;;;5077037;28;20235;-85
2022/11/10 12:13:16;;;;;;;2.72;1.70;;;;;;;;;;5076755;28;20630;-87
2022/11/10 12:15:52;;;;;;;3.00;1.73;;;;;;;;;;5076902;28;20605;-88
2022/11/10 12:18:31;;;;;;;3.60;2.05;;;;;;;;;;5076492;28;20548;-87
2022/11/10 12:21:19;;;;;;;3.97;2.33;;;;;;;;;;5076395;28;20181;-87
2022/11/10 12:24:06;;;;;;;4.35;2.03;;;;;;;;;;5077198;28;20313;-85
2022/11/10 12:26:41;;;;;;;3.95;2.72;;;;;;;;;;5079668;28;20189;-86
2022/11/10 12:29:20;;;;;;;5.70;2.65;;;;;;;;;;5077710;28;20184;-86
2022/11/10 12:31:48;;;;;;;5.82;2.00;;;;;;;;;;5077512;28;20274;-86
2022/11/10 12:34:31;;;;;;;5.32;1.85;;;;;;;;;;5077721;28;20232;-88
2022/11/10 12:37:05;;;;;;;4.88;2.08;;;;;;;;;;5077749;28;20220;-86
2022/11/10 12:39:42;;;;;;;3.92;1.83;;;;;;;;;;5077086;28;20214;-86
2022/11/10 12:42:14;;;;;;;4.18;2.10;;;;;;;;;;5076842;28;20217;-86
2022/11/10 12:44:59;;;;;;;2.22;1.90;;;;;;;;;;5077999;28;20201;-85
2022/11/10 12:47:32;;;;;;;1.92;1.42;;;;;;;;;;5077589;28;20548;-87
2022/11/10 12:50:20;;;;;;;2.10;1.40;;;;;;;;;;5075667;28;20220;-88
2022/11/10 12:52:53;;;;;;;1.42;1.33;;;;;;;;;;5076201;28;20648;-86
2022/11/10 12:55:26;;;;;;;5.88;2.40;;;;;;;;;;5076199;28;20224;-87
2022/11/10 12:57:54;;;;;;;3.65;1.70;;;;;;;;;;5076778;28;20286;-87
2022/11/10 13:00:26;;;;;;;4.82;1.95;;;;;;;;;;5075279;28;20307;-87
2022/11/10 13:02:55;;;;;;;7.53;1.80;;;;;;;;;;5075712;28;20312;-87
2022/11/10 13:05:29;;;;;;;3.53;1.70;;;;;;;;;;5075460;28;20288;-86
2022/11/10 13:08:27;;;;;;;3.22;1.55;;;;;;;;;;5076816;28;20633;-87
2022/11/10 13:10:57;;;;;;;4.50;1.73;;;;;;;;;;5073239;28;20653;-87
2022/11/10 13:13:25;;;;;;;2.30;1.50;;;;;;;;;;5076155;28;20652;-86
2022/11/10 13:15:56;;;;;;;5.47;1.98;;;;;;;;;;5075361;28;20289;-87
2022/11/10 13:19:00;;;;;;;5.03;2.53;;;;;;;;;;5075926;28;20314;-87
2022/11/10 13:22:05;;;;;;;2.00;1.52;;;;;;;;;;5055554;28;20205;-87
2022/11/10 13:24:36;;;;;;;5.10;2.25;;;;;;;;;;5054180;28;20284;-87
2022/11/10 13:27:09;;;;;;;3.25;1.75;;;;;;;;;;5055535;28;20327;-87
2022/11/10 13:29:54;;;;;;;4.25;1.80;;;;;;;;;;5055664;28;20833;-87
2022/11/10 13:32:29;;;;;;;1.45;1.35;;;;;;;;;;5055255;28;20308;-87
2022/11/10 13:35:45;;;;;;;3.35;1.52;;;;;;;;;;5055227;28;20186;-87
2022/11/10 13:38:33;;;;;;;2.75;1.42;;;;;;;;;;5056515;28;20646;-86
2022/11/10 13:41:21;;;;;;;1.90;1.42;;;;;;;;;;5056059;28;20654;-86
2022/11/10 13:43:50;;;;;;;1.73;1.40;;;;;;;;;;5056284;28;20320;-86
2022/11/10 13:46:18;;;;;;;2.15;1.33;;;;;;;;;;5055997;28;20297;-86
2022/11/10 13:49:16;;;;;;;2.25;1.20;;;;;;;;;;5055767;28;20689;-86
2022/11/10 13:51:49;;;;;;;2.83;1.20;;;;;;;;;;5056417;28;20197;-86
2022/11/10 13:54:40;;;;;;;2.45;1.30;;;;;;;;;;5056551;28;20281;-86
2022/11/10 13:57:23;;;;;;;2.58;1.38;;;;;;;;;;5056449;28;20261;-87
2022/11/10 13:59:54;;;;;;;2.42;1.23;;;;;;;;;;5056139;28;20296;-86
2022/11/10 14:02:50;;;;;;;1.35;1.10;;;;;;;;;;5058466;28;20225;-86
2022/11/10 14:06:09;;;;;;;1.15;1.10;;;;;;;;;;5057991;28;20206;-87
2022/11/10 14:08:46;;;;;;;2.08;1.23;;;;;;;;;;5047697;28;20204;-87
2022/11/10 14:11:19;;;;;;;1.92;1.30;;;;;;;;;;5058696;28;20209;-88
2022/11/10 14:13:54;;;;;;;4.57;1.40;;;;;;;;;;5058592;28;20312;-88
2022/11/10 14:16:24;;;;;;;2.15;1.20;;;;;;;;;;5059288;28;20347;-88
2022/11/10 14:18:58;;;;;;;1.02;0.90;;;;;;;;;;5058645;28;20244;-88
2022/11/10 14:21:39;;;;;;;2.10;0.90;;;;;;;;;;5058708;28;20250;-87
2022/11/10 14:24:19;;;;;;;1.55;1.25;;;;;;;;;;5059037;28;20249;-87
2022/11/10 14:26:52;;;;;;;0.93;0.80;;;;;;;;;;5059443;28;20615;-87
2022/11/10 14:29:33;;;;;;;1.50;1.20;;;;;;;;;;5058426;28;20376;-87
2022/11/10 14:32:03;;;;;;;2.28;1.13;;;;;;;;;;5059000;28;20192;-86
2022/11/10 14:34:34;;;;;;;1.77;1.25;;;;;;;;;;5059672;28;20619;-87
2022/11/10 14:37:03;;;;;;;2.20;1.17;;;;;;;;;;5058807;28;20666;-87
2022/11/10 14:39:33;;;;;;;1.20;1.10;;;;;;;;;;5059193;28;20257;-88
2022/11/10 14:42:03;;;;;;;1.67;1.10;;;;;;;;;;5058969;28;20236;-88
2022/11/10 14:44:34;;;;;;;2.22;1.10;;;;;;;;;;5058415;28;20265;-87
2022/11/10 14:47:21;;;;;;;2.72;1.10;;;;;;;;;;5057408;28;20611;-86
2022/11/10 14:50:11;;;;;;;2.33;1.20;;;;;;;;;;5057752;28;20526;-87
2022/11/10 14:52:40;;;;;;;2.22;1.27;;;;;;;;;;5058037;28;20290;-85
2022/11/10 14:55:13;;;;;;;4.32;1.10;;;;;;;;;;5057860;28;20208;-86
2022/11/10 14:57:41;;;;;;;4.22;1.20;;;;;;;;;;5058700;28;20232;-86
2022/11/10 15:00:16;;;;;;;1.55;1.20;;;;;;;;;;5058930;28;20286;-86
2022/11/10 15:02:44;;;;;;;1.17;0.98;;;;;;;;;;5057702;28;20244;-85
2022/11/10 15:05:15;;;;;;;0.98;0.85;;;;;;;;;;5058353;28;20637;-87
2022/11/10 15:07:44;;;;;;;1.65;1.00;;;;;;;;;;5057560;28;20569;-87
2022/11/10 15:10:18;;;;;;;1.38;1.00;;;;;;;;;;5059725;28;20277;-87
2022/11/10 15:13:03;;;;;;;0.95;0.90;;;;;;;;;;5057109;28;20289;-87
2022/11/10 15:15:32;;;;;;;2.45;1.30;;;;;;;;;;5057913;28;20218;-85
2022/11/10 15:18:00;;;;;;;1.25;1.15;;;;;;;;;;5058422;28;20237;-87
2022/11/10 15:20:33;;;;;;;2.88;1.13;;;;;;;;;;5056600;28;20717;-87
2022/11/10 15:23:03;;;;;;;1.20;1.02;;;;;;;;;;5057326;28;20308;-87
2022/11/10 15:25:37;;;;;;;1.17;1.00;;;;;;;;;;5058196;28;20234;-87
2022/11/10 15:28:16;;;;;;;1.63;1.13;;;;;;;;;;5057196;28;20249;-87